createdAt,value
2022-11-05T00:02:25.273Z,54.45
2022-11-05T00:05:16.122Z,56.72
2022-11-05T00:08:10.255Z,58.83
2022-11-05T00:10:42.680Z,58.67
2022-11-05T00:13:34.980Z,59.90
2022-11-05T00:16:42.360Z,59.00
2022-11-05T00:19:15.043Z,59.72
2022-11-05T00:22:05.880Z,65.97
2022-11-05T00:24:56.710Z,64.28
2022-11-05T00:27:28.980Z,59.65
2022-11-05T00:30:01.299Z,61.30
2022-11-05T00:32:34.154Z,61.05
2022-11-05T00:35:08.411Z,57.25
2022-11-05T00:37:44.341Z,62.92
2022-11-05T00:40:19.751Z,68.22
2022-11-05T00:43:10.922Z,65.25
2022-11-05T00:45:43.955Z,64.65
2022-11-05T00:48:35.288Z,59.33
2022-11-05T00:51:08.334Z,59.38
2022-11-05T00:53:40.586Z,61.05
2022-11-05T00:56:13.044Z,64.53
2022-11-05T00:58:45.568Z,59.75
2022-11-05T01:01:18.037Z,56.25
2022-11-05T01:03:51.872Z,60.78
2022-11-05T01:06:24.818Z,62.47
2022-11-05T01:08:57.234Z,61.50
2022-11-05T01:11:37.115Z,65.18
2022-11-05T01:14:12.973Z,67.18
2022-11-05T01:16:45.581Z,59.75
2022-11-05T01:19:18.020Z,54.85
2022-11-05T01:21:50.310Z,59.13
2022-11-05T01:24:22.599Z,61.97
2022-11-05T01:26:54.817Z,56.88
2022-11-05T01:29:27.062Z,50.67
2022-11-05T01:31:59.322Z,57.38
2022-11-05T01:34:31.657Z,56.00
2022-11-05T01:37:04.394Z,67.03
2022-11-05T01:39:36.711Z,59.60
2022-11-05T01:42:32.776Z,56.50
2022-11-05T01:45:12.513Z,61.53
2022-11-05T01:47:59.978Z,49.65
2022-11-05T01:50:47.515Z,55.17
2022-11-05T01:53:27.796Z,59.70
2022-11-05T01:56:08.846Z,63.40
2022-11-05T01:59:00.178Z,68.68
2022-11-05T02:01:33.058Z,65.32
2022-11-05T02:04:17.183Z,72.07
2022-11-05T02:06:49.458Z,70.30
2022-11-05T02:09:27.411Z,70.07
2022-11-05T02:11:59.648Z,75.50
2022-11-05T02:14:31.906Z,68.95
2022-11-05T02:17:26.921Z,60.95
2022-11-05T02:20:15.170Z,71.20
2022-11-05T02:23:46.138Z,63.22
2022-11-05T02:27:13.512Z,71.15
2022-11-05T02:30:03.227Z,79.72
2022-11-05T02:32:55.699Z,78.50
2022-11-05T02:35:49.880Z,84.20
2022-11-05T02:38:43.344Z,71.88
2022-11-05T02:41:48.079Z,68.72
2022-11-05T02:44:41.844Z,65.18
2022-11-05T02:47:47.814Z,68.15
2022-11-05T02:50:44.432Z,76.78
2022-11-05T02:53:34.305Z,71.45
2022-11-05T02:56:18.684Z,77.20
2022-11-05T02:58:51.139Z,68.43
2022-11-05T03:01:23.573Z,57.72
2022-11-05T03:04:02.216Z,58.08
2022-11-05T03:07:24.560Z,61.30
2022-11-05T03:10:38.220Z,61.55
2022-11-05T03:13:28.003Z,61.67
2022-11-05T03:16:15.953Z,54.17
2022-11-05T03:19:17.859Z,59.35
2022-11-05T03:22:14.693Z,67.00
2022-11-05T03:24:52.903Z,56.75
2022-11-05T03:27:31.854Z,55.28
2022-11-05T03:30:09.753Z,58.30
2022-11-05T03:32:53.925Z,58.85
2022-11-05T03:35:36.519Z,56.92
2022-11-05T03:38:28.277Z,52.40
2022-11-05T03:41:05.603Z,54.30
2022-11-05T03:43:43.146Z,49.10
2022-11-05T03:46:45.572Z,56.00
2022-11-05T03:49:27.892Z,53.58
2022-11-05T03:52:16.127Z,57.45
2022-11-05T03:54:48.583Z,57.70
2022-11-05T03:57:32.956Z,55.92
2022-11-05T04:00:09.560Z,56.80
2022-11-05T04:02:42.753Z,53.40
2022-11-05T04:05:15.213Z,59.88
2022-11-05T04:08:09.972Z,59.70
2022-11-05T04:11:05.593Z,56.22
2022-11-05T04:13:37.928Z,51.53
2022-11-05T04:16:28.773Z,57.17
2022-11-05T04:19:01.030Z,56.00
2022-11-05T04:21:53.236Z,66.60
2022-11-05T04:24:25.545Z,69.68
2022-11-05T04:26:57.818Z,64.65
2022-11-05T04:29:48.923Z,69.85
2022-11-05T04:32:21.214Z,75.97
2022-11-05T04:34:53.490Z,80.93
2022-11-05T04:37:25.967Z,111.50
2022-11-05T04:39:58.346Z,74.15
2022-11-05T04:42:30.669Z,117.10
2022-11-05T04:45:03.089Z,108.55
2022-11-05T04:47:35.418Z,128.63
2022-11-05T04:50:10.548Z,124.30
2022-11-05T04:52:43.332Z,93.25
2022-11-05T04:55:16.169Z,100.28
2022-11-05T04:57:50.780Z,77.68
2022-11-05T05:00:24.733Z,88.07
2022-11-05T05:02:57.118Z,71.60
2022-11-05T05:05:30.702Z,68.15
2022-11-05T05:08:05.073Z,76.63
2022-11-05T05:10:37.342Z,75.68
2022-11-05T05:13:12.550Z,76.38
2022-11-05T05:15:44.996Z,77.63
2022-11-05T05:18:17.342Z,80.78
2022-11-05T05:21:08.025Z,71.93
2022-11-05T05:23:40.342Z,77.03
2022-11-05T05:26:12.644Z,71.72
2022-11-05T05:28:44.944Z,67.10
2022-11-05T05:31:17.259Z,69.45
2022-11-05T05:33:49.806Z,78.63
2022-11-05T05:36:23.820Z,67.35
2022-11-05T05:38:56.173Z,81.82
2022-11-05T05:41:29.338Z,86.22
2022-11-05T05:44:01.688Z,80.47
2022-11-05T05:46:34.199Z,83.03
2022-11-05T05:49:12.048Z,84.63
2022-11-05T05:51:44.732Z,78.70
2022-11-05T05:54:17.365Z,72.93
2022-11-05T05:56:50.092Z,79.18
2022-11-05T05:59:22.491Z,91.28
2022-11-05T06:01:54.978Z,79.60
2022-11-05T06:04:27.774Z,82.03
2022-11-05T06:07:00.075Z,83.38
2022-11-05T06:09:32.404Z,85.78
2022-11-05T06:12:05.096Z,81.50
2022-11-05T06:14:37.436Z,82.47
2022-11-05T06:17:09.865Z,83.05
2022-11-05T06:19:42.313Z,95.13
2022-11-05T06:22:14.775Z,98.95
2022-11-05T06:24:47.210Z,95.72
2022-11-05T06:27:19.598Z,79.70
2022-11-05T06:29:52.038Z,87.68
2022-11-05T06:32:24.883Z,84.38
2022-11-05T06:34:57.624Z,81.47
2022-11-05T06:37:33.913Z,92.68
2022-11-05T06:40:07.621Z,107.93
2022-11-05T06:42:42.314Z,81.47
2022-11-05T06:45:14.769Z,76.47
2022-11-05T06:47:47.171Z,72.95
2022-11-05T06:50:19.588Z,80.03
2022-11-05T06:53:10.504Z,84.18
2022-11-05T06:55:45.065Z,80.72
2022-11-05T06:58:17.650Z,74.82
2022-11-05T07:00:50.124Z,73.88
2022-11-05T07:03:22.657Z,76.80
2022-11-05T07:06:00.145Z,76.82
2022-11-05T07:08:37.728Z,73.57
2022-11-05T07:11:10.184Z,73.45
2022-11-05T07:13:42.605Z,76.63
2022-11-05T07:16:15.144Z,84.75
2022-11-05T07:18:47.610Z,91.25
2022-11-05T07:21:20.058Z,93.72
2022-11-05T07:23:52.623Z,78.22
2022-11-05T07:26:26.076Z,72.32
2022-11-05T07:29:00.735Z,77.03
2022-11-05T07:31:33.335Z,64.43
2022-11-05T07:34:05.734Z,61.97
2022-11-05T07:36:39.591Z,68.63
2022-11-05T07:39:11.988Z,74.93
2022-11-05T07:41:44.532Z,70.53
2022-11-05T07:44:17.749Z,79.95
2022-11-05T07:46:53.292Z,70.00
2022-11-05T07:49:26.246Z,67.43
2022-11-05T07:51:58.769Z,63.20
2022-11-05T07:54:31.249Z,73.38
2022-11-05T07:57:03.598Z,70.78
2022-11-05T07:59:36.070Z,68.45
2022-11-05T08:02:11.687Z,71.30
2022-11-05T08:04:44.350Z,79.63
2022-11-05T08:07:16.809Z,70.10
2022-11-05T08:09:49.490Z,61.95
2022-11-05T08:12:21.870Z,59.22
2022-11-05T08:14:54.364Z,62.38
2022-11-05T08:17:26.993Z,60.13
2022-11-05T08:19:59.615Z,59.03
2022-11-05T08:22:32.080Z,63.13
2022-11-05T08:25:06.982Z,75.40
2022-11-05T08:27:41.095Z,65.13
2022-11-05T08:30:13.885Z,77.88
2022-11-05T08:32:46.297Z,66.90
2022-11-05T08:35:20.330Z,72.15
2022-11-05T08:38:03.033Z,76.18
2022-11-05T08:40:37.197Z,82.68
2022-11-05T08:43:13.367Z,82.00
2022-11-05T08:45:46.277Z,73.30
2022-11-05T08:48:19.918Z,70.88
2022-11-05T08:50:52.482Z,70.28
2022-11-05T08:53:25.070Z,71.93
2022-11-05T08:56:00.727Z,64.13
2022-11-05T08:58:33.628Z,62.17
2022-11-05T09:01:06.438Z,63.80
2022-11-05T09:03:39.269Z,68.18
2022-11-05T09:06:11.764Z,64.70
2022-11-05T09:08:44.563Z,58.38
2022-11-05T09:11:18.434Z,50.08
2022-11-05T09:13:50.908Z,52.88
2022-11-05T09:16:26.126Z,52.47
2022-11-05T09:18:58.584Z,53.90
2022-11-05T09:21:31.451Z,57.17
2022-11-05T09:24:04.759Z,57.20
2022-11-05T09:26:37.663Z,56.10
2022-11-05T09:29:14.235Z,64.80
2022-11-05T09:31:47.138Z,64.10
2022-11-05T09:34:19.647Z,67.90
2022-11-05T09:36:52.117Z,53.50
2022-11-05T09:39:24.968Z,52.10
2022-11-05T09:42:07.347Z,56.00
2022-11-05T09:45:04.602Z,55.97
2022-11-05T09:47:43.551Z,59.53
2022-11-05T09:50:25.553Z,53.83
2022-11-05T09:52:58.818Z,55.63
2022-11-05T09:55:49.246Z,66.88
2022-11-05T09:59:07.178Z,51.92
2022-11-05T10:04:21.861Z,56.53
2022-11-05T10:07:00.839Z,63.65
2022-11-05T10:09:47.875Z,49.90
2022-11-05T10:12:48.142Z,61.75
2022-11-05T10:15:24.794Z,57.42
2022-11-05T10:18:04.524Z,61.42
2022-11-05T10:20:39.207Z,63.22
2022-11-05T10:23:18.679Z,69.38
2022-11-05T10:26:10.189Z,69.57
2022-11-05T10:28:42.551Z,80.35
2022-11-05T10:31:21.107Z,60.15
2022-11-05T10:34:02.704Z,62.55
2022-11-05T10:36:38.015Z,87.75
2022-11-05T10:39:15.043Z,90.30
2022-11-05T10:42:22.458Z,87.82
2022-11-05T10:45:38.582Z,78.95
2022-11-05T10:48:52.200Z,75.82
2022-11-05T10:51:25.093Z,83.03
2022-11-05T10:54:03.101Z,76.00
2022-11-05T10:56:41.291Z,77.05
2022-11-05T10:59:28.993Z,76.55
2022-11-05T11:02:18.260Z,63.72
2022-11-05T11:04:58.418Z,65.85
2022-11-05T11:07:31.202Z,57.15
2022-11-05T11:10:04.302Z,68.63
2022-11-05T11:12:44.218Z,55.42
2022-11-05T11:15:27.455Z,51.63
2022-11-05T11:18:00.290Z,57.97
2022-11-05T11:20:33.657Z,63.25
2022-11-05T11:23:13.977Z,67.75
2022-11-05T11:26:02.249Z,56.13
2022-11-05T11:28:47.181Z,56.38
2022-11-05T11:31:26.009Z,74.25
2022-11-05T11:34:04.686Z,55.47
2022-11-05T11:36:46.275Z,78.28
2022-11-05T11:39:25.165Z,64.20
2022-11-05T11:42:05.674Z,71.28
2022-11-05T11:44:44.976Z,54.28
2022-11-05T11:47:21.220Z,47.53
2022-11-05T11:50:01.160Z,53.95
2022-11-05T11:52:36.985Z,62.60
2022-11-05T11:55:12.383Z,84.03
2022-11-05T11:57:54.692Z,72.25
2022-11-05T12:00:27.278Z,93.22
2022-11-05T12:03:41.286Z,69.28
2022-11-05T12:06:41.384Z,74.15
2022-11-05T12:09:44.421Z,89.22
2022-11-05T12:12:23.011Z,100.45
2022-11-05T12:15:23.136Z,73.63
2022-11-05T12:18:07.715Z,74.05
2022-11-05T12:21:07.639Z,78.93
2022-11-05T12:24:21.025Z,88.15
2022-11-05T12:27:47.813Z,63.67
2022-11-05T12:30:22.107Z,53.17
2022-11-05T12:33:26.805Z,69.10
2022-11-05T12:36:28.657Z,99.00
2022-11-05T12:39:42.831Z,52.13
2022-11-05T12:42:42.852Z,55.28
2022-11-05T12:45:36.597Z,117.97
2022-11-05T12:48:43.151Z,135.27
2022-11-05T12:51:28.470Z,50.65
2022-11-05T12:54:40.924Z,67.35
2022-11-05T12:57:15.618Z,53.95
2022-11-05T13:00:02.472Z,105.05
2022-11-05T13:02:47.883Z,106.40
2022-11-05T13:06:06.115Z,50.40
2022-11-05T13:08:46.792Z,59.63
2022-11-05T13:11:40.881Z,99.80
2022-11-05T13:14:22.623Z,76.05
2022-11-05T13:17:01.306Z,94.03
2022-11-05T13:19:46.971Z,69.45
2022-11-05T13:22:40.323Z,70.63
2022-11-05T13:25:29.240Z,111.40
2022-11-05T13:28:28.771Z,79.32
2022-11-05T13:31:05.996Z,101.60
2022-11-05T13:33:43.128Z,81.97
2022-11-05T13:36:44.942Z,65.30
2022-11-05T13:39:57.689Z,66.57
2022-11-05T13:42:38.871Z,68.70
2022-11-05T13:45:29.807Z,67.75
2022-11-05T13:48:34.548Z,73.00
2022-11-05T13:51:40.288Z,67.40
2022-11-05T13:54:55.863Z,69.07
2022-11-05T13:57:31.164Z,65.63
2022-11-05T14:00:27.427Z,76.45
2022-11-05T14:03:20.002Z,59.08
2022-11-05T14:06:09.252Z,62.38
2022-11-05T14:08:46.054Z,56.45
2022-11-05T14:11:42.317Z,65.07
2022-11-05T14:14:26.650Z,69.60
2022-11-05T14:17:08.104Z,62.92
2022-11-05T14:20:06.601Z,57.08
2022-11-05T14:22:42.562Z,60.92
2022-11-05T14:25:18.297Z,66.32
2022-11-05T14:27:53.518Z,59.25
2022-11-05T14:30:46.962Z,97.32
2022-11-05T14:33:25.528Z,80.03
2022-11-05T14:36:20.623Z,76.80
2022-11-05T14:39:12.198Z,74.68
2022-11-05T14:42:11.094Z,81.35
2022-11-05T14:44:59.653Z,80.65
2022-11-05T14:47:38.042Z,84.65
2022-11-05T14:50:20.898Z,85.35
2022-11-05T14:52:57.757Z,97.22
2022-11-05T14:55:36.406Z,89.70
2022-11-05T14:58:30.762Z,101.63
2022-11-05T15:01:30.239Z,83.05
2022-11-05T15:04:17.497Z,65.65
2022-11-05T15:07:05.963Z,65.35
2022-11-05T15:09:50.619Z,76.40
2022-11-05T15:13:04.835Z,72.28
2022-11-05T15:15:44.814Z,70.32
2022-11-05T15:18:35.622Z,69.70
2022-11-05T15:21:13.619Z,65.95
2022-11-05T15:23:50.338Z,73.72
2022-11-05T15:26:59.226Z,58.88
2022-11-05T15:29:33.846Z,88.05
2022-11-05T15:32:12.277Z,86.05
2022-11-05T15:34:53.795Z,79.35
2022-11-05T15:37:27.995Z,80.50
2022-11-05T15:40:00.527Z,63.13
2022-11-05T15:42:32.885Z,81.68
2022-11-05T15:45:17.872Z,73.68
2022-11-05T15:47:50.185Z,63.65
2022-11-05T15:50:22.780Z,68.38
2022-11-05T15:53:04.832Z,70.38
2022-11-05T15:56:02.150Z,58.38
2022-11-05T15:58:41.330Z,63.85
2022-11-05T16:01:36.987Z,73.32
2022-11-05T16:04:16.361Z,58.60
2022-11-05T16:06:53.020Z,66.15
2022-11-05T16:09:31.099Z,65.05
2022-11-05T16:12:32.126Z,71.50
2022-11-05T16:15:29.386Z,85.40
2022-11-05T16:18:01.887Z,82.10
2022-11-05T16:20:38.504Z,69.70
2022-11-05T16:23:25.330Z,72.40
2022-11-05T16:25:57.776Z,76.82
2022-11-05T16:28:31.083Z,83.70
2022-11-05T16:31:06.348Z,67.30
2022-11-05T16:33:46.230Z,80.68
2022-11-05T16:36:18.990Z,76.93
2022-11-05T16:38:51.842Z,75.38
2022-11-05T16:41:26.143Z,75.75
2022-11-05T16:44:00.835Z,69.07
2022-11-05T16:46:34.188Z,69.43
2022-11-05T16:49:06.538Z,66.05
2022-11-05T16:51:39.366Z,66.22
2022-11-05T16:54:11.917Z,66.63
2022-11-05T16:56:45.307Z,80.20
2022-11-05T16:59:17.660Z,134.40
2022-11-05T17:01:55.485Z,309.85
2022-11-05T17:04:28.202Z,322.48
2022-11-05T17:07:00.544Z,315.30
2022-11-05T17:09:32.980Z,301.40
2022-11-05T17:12:05.596Z,297.10
2022-11-05T17:14:38.097Z,292.10
2022-11-05T17:17:11.320Z,282.73
2022-11-05T17:19:47.042Z,294.08
2022-11-05T17:22:19.304Z,284.50
2022-11-05T17:24:51.634Z,277.33
2022-11-05T17:27:23.938Z,282.47
2022-11-05T17:29:56.247Z,274.53
2022-11-05T17:32:28.660Z,233.10
2022-11-05T17:35:01.030Z,199.57
2022-11-05T17:37:33.857Z,153.53
2022-11-05T17:40:08.756Z,135.07
